デリー の空港の天気 - METARとTAF

インディラ・ガンディー国際空港 ( VIDP / DEL ) - インド デリー
飛行場実況気象(Metar)
観測時間04/26 16:30 IST (04/26 11:00 UTC)
風向・風速北東 3m/s
視程4000m
天気現象煙霧
なし
気温42℃
湿度9%
気圧1001hPa
METARVIDP 261100Z 04006KT 4000 HZ NSC 42/03 Q1001 NOSIG
過去の天気等 Google飛行場航空写真 Wunderground天気予報

過去48時間のMETAR

飛行場予報(TAF)
発表時間: 4/26 10:30 IST (4/26 05:00 UTC)
予報対象時間: 26日11時 IST ~ 27日17時 IST
風向・風速北西 5m/s
視程4,000m
天気現象風塵
少しの雲 雲底高度 1,220m
26日13時 IST ~ 26日16時 IST に一時的に
風向・風速北西 5m/s 瞬間風速 13m/s
視程1,200m
天気現象高い風塵
少しの塔状積雲 雲底高度 1,070m
26日22時 IST ~ 27日24時 IST に徐々に
風向・風速北北東 3m/s
視程3,000m
天気現象煙霧
少しの雲 雲底高度 3,050m
27日5時 IST ~ 27日7時 IST に徐々に
風向・風速東南東 4m/s
27日11時 IST ~ 27日13時 IST に徐々に
視程5,000m
天気現象風塵
少しの雲 雲底高度 1,220m
全天の4割程度の雲 雲底高度 3,050m
27日14時 IST ~ 27日17時 IST に一時的に
少しの塔状積雲 雲底高度 1,070m
TAF VIDP 260500Z 2606/2712 31010KT 4000 DU FEW040
TEMPO 2608/2611 31010G25KT 1200 BLDU FEW035TCU
BECMG 2617/2619 03006KT 3000 HZ FEW100
BECMG 2700/2702 11008KT
BECMG 2706/2708 5000 DU FEW040 SCT100
TEMPO 2709/2712 FEW035TCU